sensor_id;sensor_type;location;lat;lon;timestamp;pressure;altitude;pressure_sealevel;temperature;humidity
3434;BME280;1730;41.932;25.548;2023-11-21T00:01:57;99446.66;;;6.78;100.00
3434;BME280;1730;41.932;25.548;2023-11-21T00:04:23;99167.09;;;4.99;100.00
3434;BME280;1730;41.932;25.548;2023-11-21T00:06:49;99442.63;;;6.52;100.00
3434;BME280;1730;41.932;25.548;2023-11-21T00:09:15;99512.13;;;6.53;100.00
3434;BME280;1730;41.932;25.548;2023-11-21T00:11:41;99466.13;;;6.48;100.00
3434;BME280;1730;41.932;25.548;2023-11-21T00:14:07;99474.72;;;6.63;100.00
3434;BME280;1730;41.932;25.548;2023-11-21T00:16:33;99470.16;;;6.43;100.00
3434;BME280;1730;41.932;25.548;2023-11-21T00:18:59;99407.78;;;6.09;100.00
3434;BME280;1730;41.932;25.548;2023-11-21T00:21:25;99473.69;;;6.43;100.00
3434;BME280;1730;41.932;25.548;2023-11-21T00:23:52;99473.44;;;6.35;100.00
3434;BME280;1730;41.932;25.548;2023-11-21T00:26:17;99486.72;;;6.25;100.00
3434;BME280;1730;41.932;25.548;2023-11-21T00:28:43;99070.34;;;3.95;100.00
3434;BME280;1730;41.932;25.548;2023-11-21T00:31:08;99420.81;;;5.91;100.00
3434;BME280;1730;41.932;25.548;2023-11-21T00:33:34;99471.28;;;6.18;100.00
3434;BME280;1730;41.932;25.548;2023-11-21T00:35:59;99475.53;;;5.98;100.00
3434;BME280;1730;41.932;25.548;2023-11-21T00:38:26;99113.97;;;3.83;100.00
3434;BME280;1730;41.932;25.548;2023-11-21T00:40:53;99523.22;;;6.15;100.00
3434;BME280;1730;41.932;25.548;2023-11-21T00:43:24;99529.09;;;6.31;100.00
3434;BME280;1730;41.932;25.548;2023-11-21T00:45:50;99452.00;;;5.79;100.00
3434;BME280;1730;41.932;25.548;2023-11-21T00:48:16;99518.72;;;6.16;100.00
3434;BME280;1730;41.932;25.548;2023-11-21T00:50:43;99430.00;;;5.54;100.00
3434;BME280;1730;41.932;25.548;2023-11-21T00:53:09;99310.56;;;4.64;100.00
3434;BME280;1730;41.932;25.548;2023-11-21T00:55:35;99364.03;;;4.86;100.00
3434;BME280;1730;41.932;25.548;2023-11-21T00:58:00;99439.06;;;5.18;100.00
3434;BME280;1730;41.932;25.548;2023-11-21T01:00:28;99285.84;;;4.38;100.00
3434;BME280;1730;41.932;25.548;2023-11-21T01:02:54;99560.56;;;5.95;100.00
3434;BME280;1730;41.932;25.548;2023-11-21T01:05:20;99486.66;;;5.59;100.00
3434;BME280;1730;41.932;25.548;2023-11-21T01:07:45;99545.84;;;6.11;100.00
3434;BME280;1730;41.932;25.548;2023-11-21T01:10:11;99495.91;;;5.66;100.00
3434;BME280;1730;41.932;25.548;2023-11-21T01:12:38;99513.28;;;5.60;100.00
3434;BME280;1730;41.932;25.548;2023-11-21T01:15:05;99516.31;;;5.56;100.00
3434;BME280;1730;41.932;25.548;2023-11-21T01:17:34;99526.59;;;5.38;100.00
3434;BME280;1730;41.932;25.548;2023-11-21T01:20:04;99516.84;;;5.26;100.00
3434;BME280;1730;41.932;25.548;2023-11-21T01:22:36;99540.66;;;5.29;100.00
3434;BME280;1730;41.932;25.548;2023-11-21T01:25:01;99233.00;;;3.37;100.00
3434;BME280;1730;41.932;25.548;2023-11-21T01:27:29;99555.66;;;5.19;100.00
3434;BME280;1730;41.932;25.548;2023-11-21T01:29:55;99306.28;;;3.42;100.00
3434;BME280;1730;41.932;25.548;2023-11-21T01:32:21;99417.59;;;4.00;100.00
3434;BME280;1730;41.932;25.548;2023-11-21T01:34:47;99603.53;;;4.98;100.00
3434;BME280;1730;41.932;25.548;2023-11-21T01:37:14;99487.25;;;4.21;100.00
3434;BME280;1730;41.932;25.548;2023-11-21T01:39:40;99613.16;;;5.00;100.00
3434;BME280;1730;41.932;25.548;2023-11-21T01:42:06;99632.69;;;5.01;100.00
3434;BME280;1730;41.932;25.548;2023-11-21T01:44:33;99614.13;;;4.99;100.00
3434;BME280;1730;41.932;25.548;2023-11-21T01:46:58;99635.50;;;5.23;100.00
3434;BME280;1730;41.932;25.548;2023-11-21T01:49:24;99642.75;;;5.34;100.00
3434;BME280;1730;41.932;25.548;2023-11-21T01:51:50;99578.31;;;5.02;100.00
3434;BME280;1730;41.932;25.548;2023-11-21T01:54:17;99628.37;;;5.48;100.00
3434;BME280;1730;41.932;25.548;2023-11-21T01:56:47;99599.56;;;5.27;100.00
3434;BME280;1730;41.932;25.548;2023-11-21T01:59:19;99596.09;;;5.14;100.00
3434;BME280;1730;41.932;25.548;2023-11-21T02:01:46;99478.78;;;4.27;100.00
3434;BME280;1730;41.932;25.548;2023-11-21T02:04:15;99616.28;;;4.94;100.00
3434;BME280;1730;41.932;25.548;2023-11-21T02:06:41;99632.66;;;4.90;100.00
3434;BME280;1730;41.932;25.548;2023-11-21T02:09:07;99435.81;;;3.57;100.00
3434;BME280;1730;41.932;25.548;2023-11-21T02:11:34;99657.59;;;5.02;100.00
3434;BME280;1730;41.932;25.548;2023-11-21T02:14:00;99654.53;;;4.95;100.00
3434;BME280;1730;41.932;25.548;2023-11-21T02:16:26;99665.87;;;4.86;100.00
3434;BME280;1730;41.932;25.548;2023-11-21T02:18:57;99661.62;;;4.71;100.00
3434;BME280;1730;41.932;25.548;2023-11-21T02:21:24;99629.97;;;4.16;100.00
3434;BME280;1730;41.932;25.548;2023-11-21T02:23:50;99432.31;;;3.32;100.00
3434;BME280;1730;41.932;25.548;2023-11-21T02:26:16;99335.00;;;2.88;100.00
3434;BME280;1730;41.932;25.548;2023-11-21T02:28:42;99563.12;;;4.17;100.00
3434;BME280;1730;41.932;25.548;2023-11-21T02:31:08;99664.09;;;4.61;100.00
3434;BME280;1730;41.932;25.548;2023-11-21T02:33:34;99616.41;;;4.19;100.00
3434;BME280;1730;41.932;25.548;2023-11-21T02:36:02;99694.41;;;4.85;100.00
3434;BME280;1730;41.932;25.548;2023-11-21T02:38:28;99698.47;;;4.78;100.00
3434;BME280;1730;41.932;25.548;2023-11-21T02:40:54;99460.53;;;3.34;100.00
3434;BME280;1730;41.932;25.548;2023-11-21T02:43:19;99705.00;;;4.74;100.00
3434;BME280;1730;41.932;25.548;2023-11-21T02:45:45;99589.41;;;3.98;100.00
3434;BME280;1730;41.932;25.548;2023-11-21T02:48:10;99621.72;;;4.06;100.00
3434;BME280;1730;41.932;25.548;2023-11-21T02:50:36;99411.66;;;2.70;100.00
3434;BME280;1730;41.932;25.548;2023-11-21T02:53:02;99704.47;;;4.44;100.00
3434;BME280;1730;41.932;25.548;2023-11-21T02:55:29;99628.66;;;4.08;100.00
3434;BME280;1730;41.932;25.548;2023-11-21T02:57:56;99662.41;;;4.35;100.00
3434;BME280;1730;41.932;25.548;2023-11-21T03:00:24;99699.03;;;4.58;100.00
3434;BME280;1730;41.932;25.548;2023-11-21T03:02:51;99739.19;;;4.94;100.00
3434;BME280;1730;41.932;25.548;2023-11-21T03:05:16;99716.94;;;4.94;100.00
3434;BME280;1730;41.932;25.548;2023-11-21T03:07:42;99708.06;;;4.93;100.00
3434;BME280;1730;41.932;25.548;2023-11-21T03:10:08;99701.97;;;4.91;100.00
3434;BME280;1730;41.932;25.548;2023-11-21T03:12:37;99695.56;;;4.94;100.00
3434;BME280;1730;41.932;25.548;2023-11-21T03:15:07;99706.03;;;4.97;100.00
3434;BME280;1730;41.932;25.548;2023-11-21T03:17:33;99681.47;;;4.92;100.00
3434;BME280;1730;41.932;25.548;2023-11-21T03:20:02;99702.69;;;5.06;100.00
3434;BME280;1730;41.932;25.548;2023-11-21T03:22:29;99706.97;;;5.21;100.00
3434;BME280;1730;41.932;25.548;2023-11-21T03:24:54;99669.91;;;4.91;100.00
3434;BME280;1730;41.932;25.548;2023-11-21T03:27:23;99705.06;;;4.98;100.00
3434;BME280;1730;41.932;25.548;2023-11-21T03:29:49;99679.63;;;5.05;100.00
3434;BME280;1730;41.932;25.548;2023-11-21T03:32:15;99621.91;;;4.66;100.00
3434;BME280;1730;41.932;25.548;2023-11-21T03:34:57;99654.78;;;4.67;100.00
3434;BME280;1730;41.932;25.548;2023-11-21T03:37:24;99667.66;;;4.98;100.00
3434;BME280;1730;41.932;25.548;2023-11-21T03:39:52;99675.25;;;4.91;100.00
3434;BME280;1730;41.932;25.548;2023-11-21T03:42:18;99591.72;;;4.40;100.00
3434;BME280;1730;41.932;25.548;2023-11-21T03:44:43;99694.75;;;4.81;100.00
3434;BME280;1730;41.932;25.548;2023-11-21T03:47:09;99657.03;;;4.85;100.00
3434;BME280;1730;41.932;25.548;2023-11-21T03:49:35;99675.63;;;4.74;100.00
3434;BME280;1730;41.932;25.548;2023-11-21T03:52:00;99650.63;;;4.63;100.00
3434;BME280;1730;41.932;25.548;2023-11-21T03:54:26;99658.97;;;4.71;100.00
3434;BME280;1730;41.932;25.548;2023-11-21T03:56:51;99666.34;;;4.67;100.00
3434;BME280;1730;41.932;25.548;2023-11-21T03:59:17;99683.63;;;4.87;100.00
3434;BME280;1730;41.932;25.548;2023-11-21T04:01:43;99678.16;;;4.88;100.00
3434;BME280;1730;41.932;25.548;2023-11-21T04:04:08;99664.28;;;4.83;100.00
3434;BME280;1730;41.932;25.548;2023-11-21T04:06:34;99537.44;;;4.16;100.00
3434;BME280;1730;41.932;25.548;2023-11-21T04:09:00;99309.25;;;2.76;100.00
3434;BME280;1730;41.932;25.548;2023-11-21T04:11:26;99630.53;;;4.70;100.00
3434;BME280;1730;41.932;25.548;2023-11-21T04:13:53;99551.06;;;4.37;100.00
3434;BME280;1730;41.932;25.548;2023-11-21T04:16:19;99647.16;;;4.98;100.00
3434;BME280;1730;41.932;25.548;2023-11-21T04:18:44;99636.00;;;5.05;100.00
3434;BME280;1730;41.932;25.548;2023-11-21T04:21:10;99621.97;;;4.90;100.00
3434;BME280;1730;41.932;25.548;2023-11-21T04:23:35;99619.00;;;4.82;100.00
3434;BME280;1730;41.932;25.548;2023-11-21T04:26:01;99641.47;;;5.03;100.00
3434;BME280;1730;41.932;25.548;2023-11-21T04:28:27;99654.88;;;4.90;100.00
3434;BME280;1730;41.932;25.548;2023-11-21T04:30:53;99563.34;;;4.14;100.00
3434;BME280;1730;41.932;25.548;2023-11-21T04:33:19;99687.72;;;5.16;100.00
3434;BME280;1730;41.932;25.548;2023-11-21T04:35:45;99696.09;;;4.99;100.00
3434;BME280;1730;41.932;25.548;2023-11-21T04:38:10;99440.28;;;3.44;100.00
3434;BME280;1730;41.932;25.548;2023-11-21T04:40:36;99708.50;;;4.87;100.00
3434;BME280;1730;41.932;25.548;2023-11-21T04:43:02;99694.50;;;4.84;100.00
3434;BME280;1730;41.932;25.548;2023-11-21T04:45:29;99750.50;;;4.85;100.00
3434;BME280;1730;41.932;25.548;2023-11-21T04:47:54;99775.59;;;4.83;100.00
3434;BME280;1730;41.932;25.548;2023-11-21T04:50:20;99801.28;;;4.85;100.00
3434;BME280;1730;41.932;25.548;2023-11-21T04:52:46;99642.06;;;3.82;100.00
3434;BME280;1730;41.932;25.548;2023-11-21T04:55:12;99828.22;;;4.82;100.00
3434;BME280;1730;41.932;25.548;2023-11-21T04:57:38;99675.19;;;3.65;100.00
3434;BME280;1730;41.932;25.548;2023-11-21T05:00:13;99744.94;;;3.86;100.00
3434;BME280;1730;41.932;25.548;2023-11-21T05:02:40;99620.72;;;3.03;100.00
3434;BME280;1730;41.932;25.548;2023-11-21T05:05:07;99896.09;;;4.66;100.00
3434;BME280;1730;41.932;25.548;2023-11-21T05:07:33;99780.31;;;4.02;100.00
3434;BME280;1730;41.932;25.548;2023-11-21T05:10:00;99867.81;;;4.63;100.00
3434;BME280;1730;41.932;25.548;2023-11-21T05:12:31;99820.59;;;4.64;100.00
3434;BME280;1730;41.932;25.548;2023-11-21T05:15:04;99758.22;;;4.65;100.00
3434;BME280;1730;41.932;25.548;2023-11-21T05:17:33;99735.84;;;4.28;100.00
3434;BME280;1730;41.932;25.548;2023-11-21T05:20:00;99567.44;;;3.42;100.00
3434;BME280;1730;41.932;25.548;2023-11-21T05:22:29;99738.84;;;4.23;100.00
3434;BME280;1730;41.932;25.548;2023-11-21T05:24:55;99602.66;;;3.47;100.00
3434;BME280;1730;41.932;25.548;2023-11-21T05:27:21;99727.44;;;4.34;100.00
3434;BME280;1730;41.932;25.548;2023-11-21T05:29:47;99276.00;;;1.65;100.00
3434;BME280;1730;41.932;25.548;2023-11-21T05:32:12;99710.75;;;4.30;100.00
3434;BME280;1730;41.932;25.548;2023-11-21T05:34:38;99400.44;;;2.53;100.00
3434;BME280;1730;41.932;25.548;2023-11-21T05:37:03;99403.34;;;2.62;100.00
3434;BME280;1730;41.932;25.548;2023-11-21T05:39:30;99611.47;;;4.00;100.00
3434;BME280;1730;41.932;25.548;2023-11-21T05:41:57;99733.72;;;4.71;100.00
3434;BME280;1730;41.932;25.548;2023-11-21T05:44:23;99708.19;;;4.79;100.00
3434;BME280;1730;41.932;25.548;2023-11-21T05:46:49;99349.47;;;2.59;100.00
3434;BME280;1730;41.932;25.548;2023-11-21T05:49:15;99743.34;;;4.98;100.00
3434;BME280;1730;41.932;25.548;2023-11-21T05:51:41;99528.56;;;3.65;100.00
3434;BME280;1730;41.932;25.548;2023-11-21T05:54:07;99735.03;;;5.27;100.00
3434;BME280;1730;41.932;25.548;2023-11-21T05:56:33;99663.81;;;5.02;100.00
3434;BME280;1730;41.932;25.548;2023-11-21T05:58:59;99607.22;;;4.84;100.00
3434;BME280;1730;41.932;25.548;2023-11-21T06:01:25;99479.19;;;4.46;100.00
3434;BME280;1730;41.932;25.548;2023-11-21T06:03:54;99343.38;;;3.94;100.00
3434;BME280;1730;41.932;25.548;2023-11-21T06:06:21;99420.16;;;4.62;100.00
3434;BME280;1730;41.932;25.548;2023-11-21T06:08:48;99476.34;;;5.19;100.00
3434;BME280;1730;41.932;25.548;2023-11-21T06:11:14;99690.84;;;6.51;100.00
3434;BME280;1730;41.932;25.548;2023-11-21T06:13:42;99612.84;;;6.67;100.00
3434;BME280;1730;41.932;25.548;2023-11-21T06:16:08;99549.75;;;6.29;100.00
3434;BME280;1730;41.932;25.548;2023-11-21T06:18:33;99236.66;;;4.64;100.00
3434;BME280;1730;41.932;25.548;2023-11-21T06:21:00;99435.13;;;6.12;100.00
3434;BME280;1730;41.932;25.548;2023-11-21T06:23:26;99504.06;;;6.64;100.00
3434;BME280;1730;41.932;25.548;2023-11-21T06:25:52;99489.81;;;6.64;100.00
3434;BME280;1730;41.932;25.548;2023-11-21T06:28:18;99517.62;;;7.27;100.00
3434;BME280;1730;41.932;25.548;2023-11-21T06:30:44;99529.88;;;7.19;100.00
3434;BME280;1730;41.932;25.548;2023-11-21T06:33:12;99487.56;;;7.44;100.00
3434;BME280;1730;41.932;25.548;2023-11-21T06:35:38;99447.91;;;7.27;100.00
3434;BME280;1730;41.932;25.548;2023-11-21T06:38:03;99497.84;;;7.80;100.00
3434;BME280;1730;41.932;25.548;2023-11-21T06:40:29;99478.50;;;8.16;100.00
3434;BME280;1730;41.932;25.548;2023-11-21T06:42:54;99461.91;;;8.32;100.00
3434;BME280;1730;41.932;25.548;2023-11-21T06:45:20;99437.00;;;8.30;100.00
3434;BME280;1730;41.932;25.548;2023-11-21T06:47:46;99282.28;;;7.09;100.00
3434;BME280;1730;41.932;25.548;2023-11-21T06:50:12;99426.44;;;7.98;100.00
3434;BME280;1730;41.932;25.548;2023-11-21T06:52:41;99426.56;;;7.97;100.00
3434;BME280;1730;41.932;25.548;2023-11-21T06:55:08;99249.06;;;7.31;100.00
3434;BME280;1730;41.932;25.548;2023-11-21T06:57:35;99228.41;;;7.62;100.00
3434;BME280;1730;41.932;25.548;2023-11-21T07:00:01;99359.16;;;8.69;100.00
3434;BME280;1730;41.932;25.548;2023-11-21T07:02:27;99346.97;;;8.84;100.00
3434;BME280;1730;41.932;25.548;2023-11-21T07:04:53;99320.50;;;8.98;100.00
3434;BME280;1730;41.932;25.548;2023-11-21T07:07:19;99067.53;;;7.60;100.00
3434;BME280;1730;41.932;25.548;2023-11-21T07:09:44;99025.06;;;7.37;100.00
3434;BME280;1730;41.932;25.548;2023-11-21T07:12:10;99064.59;;;7.44;100.00
3434;BME280;1730;41.932;25.548;2023-11-21T07:14:36;99307.19;;;8.87;100.00
3434;BME280;1730;41.932;25.548;2023-11-21T07:17:04;99316.34;;;9.14;100.00
3434;BME280;1730;41.932;25.548;2023-11-21T07:19:30;99188.56;;;8.53;100.00
3434;BME280;1730;41.932;25.548;2023-11-21T07:21:56;99283.63;;;9.18;100.00
3434;BME280;1730;41.932;25.548;2023-11-21T07:24:22;99314.97;;;9.46;100.00
3434;BME280;1730;41.932;25.548;2023-11-21T07:26:50;99310.91;;;9.70;100.00
3434;BME280;1730;41.932;25.548;2023-11-21T07:29:15;99308.81;;;10.18;100.00
3434;BME280;1730;41.932;25.548;2023-11-21T07:31:41;99270.50;;;10.15;100.00
3434;BME280;1730;41.932;25.548;2023-11-21T07:34:07;99288.50;;;10.42;100.00
3434;BME280;1730;41.932;25.548;2023-11-21T07:36:33;99260.31;;;10.36;100.00
3434;BME280;1730;41.932;25.548;2023-11-21T07:38:59;99107.53;;;9.58;100.00
3434;BME280;1730;41.932;25.548;2023-11-21T07:41:25;99253.00;;;10.90;100.00
3434;BME280;1730;41.932;25.548;2023-11-21T07:43:51;99257.81;;;11.04;100.00
3434;BME280;1730;41.932;25.548;2023-11-21T07:46:16;99246.28;;;11.19;100.00
3434;BME280;1730;41.932;25.548;2023-11-21T07:48:42;99240.81;;;11.37;100.00
3434;BME280;1730;41.932;25.548;2023-11-21T07:51:09;99228.03;;;11.47;100.00
3434;BME280;1730;41.932;25.548;2023-11-21T07:53:35;99208.87;;;11.32;100.00
3434;BME280;1730;41.932;25.548;2023-11-21T07:56:08;99219.62;;;11.58;100.00
3434;BME280;1730;41.932;25.548;2023-11-21T07:58:38;99195.16;;;11.60;100.00
3434;BME280;1730;41.932;25.548;2023-11-21T08:01:04;98980.78;;;10.54;100.00
3434;BME280;1730;41.932;25.548;2023-11-21T08:03:30;99182.00;;;11.57;100.00
3434;BME280;1730;41.932;25.548;2023-11-21T08:06:25;99206.59;;;11.46;100.00
3434;BME280;1730;41.932;25.548;2023-11-21T08:08:51;99202.25;;;11.61;100.00
3434;BME280;1730;41.932;25.548;2023-11-21T08:11:17;99190.03;;;11.91;100.00
3434;BME280;1730;41.932;25.548;2023-11-21T08:13:42;99131.25;;;11.77;100.00
3434;BME280;1730;41.932;25.548;2023-11-21T08:16:15;99156.97;;;12.21;100.00
3434;BME280;1730;41.932;25.548;2023-11-21T08:19:46;99147.63;;;12.64;100.00
3434;BME280;1730;41.932;25.548;2023-11-21T08:23:17;99123.09;;;12.74;100.00
3434;BME280;1730;41.932;25.548;2023-11-21T08:26:11;99121.56;;;12.79;100.00
3434;BME280;1730;41.932;25.548;2023-11-21T08:28:43;99113.28;;;12.73;100.00
3434;BME280;1730;41.932;25.548;2023-11-21T08:31:09;99128.78;;;12.95;100.00
3434;BME280;1730;41.932;25.548;2023-11-21T08:33:34;99109.13;;;13.17;100.00
3434;BME280;1730;41.932;25.548;2023-11-21T08:36:00;99104.50;;;12.79;100.00
3434;BME280;1730;41.932;25.548;2023-11-21T08:38:26;99113.03;;;13.15;100.00
3434;BME280;1730;41.932;25.548;2023-11-21T08:40:53;99097.53;;;13.62;100.00
3434;BME280;1730;41.932;25.548;2023-11-21T08:43:19;99038.78;;;13.01;100.00
3434;BME280;1730;41.932;25.548;2023-11-21T08:45:46;98791.03;;;12.22;100.00
3434;BME280;1730;41.932;25.548;2023-11-21T08:48:12;99090.28;;;13.85;100.00
3434;BME280;1730;41.932;25.548;2023-11-21T08:50:37;99066.88;;;14.07;100.00
3434;BME280;1730;41.932;25.548;2023-11-21T08:53:03;99055.22;;;14.21;100.00
3434;BME280;1730;41.932;25.548;2023-11-21T08:55:29;99004.34;;;14.23;100.00
3434;BME280;1730;41.932;25.548;2023-11-21T08:57:54;99011.41;;;14.62;100.00
3434;BME280;1730;41.932;25.548;2023-11-21T09:00:20;99014.22;;;14.83;100.00
3434;BME280;1730;41.932;25.548;2023-11-21T09:02:47;98758.06;;;13.47;100.00
3434;BME280;1730;41.932;25.548;2023-11-21T09:05:14;99001.34;;;15.06;100.00
3434;BME280;1730;41.932;25.548;2023-11-21T09:07:41;98900.38;;;14.81;100.00
3434;BME280;1730;41.932;25.548;2023-11-21T09:10:44;98928.00;;;15.06;100.00
3434;BME280;1730;41.932;25.548;2023-11-21T09:13:13;98999.81;;;15.54;100.00
3434;BME280;1730;41.932;25.548;2023-11-21T09:15:38;98985.97;;;15.70;100.00
3434;BME280;1730;41.932;25.548;2023-11-21T09:18:05;98792.56;;;14.75;100.00
3434;BME280;1730;41.932;25.548;2023-11-21T09:20:31;98830.38;;;14.77;100.00
3434;BME280;1730;41.932;25.548;2023-11-21T09:23:04;98979.84;;;15.90;100.00
3434;BME280;1730;41.932;25.548;2023-11-21T09:25:30;98881.47;;;15.30;100.00
3434;BME280;1730;41.932;25.548;2023-11-21T09:27:55;98985.00;;;15.78;100.00
3434;BME280;1730;41.932;25.548;2023-11-21T09:30:22;98980.50;;;15.92;100.00
3434;BME280;1730;41.932;25.548;2023-11-21T09:32:50;98964.25;;;16.33;100.00
3434;BME280;1730;41.932;25.548;2023-11-21T09:35:16;98867.31;;;15.91;100.00
3434;BME280;1730;41.932;25.548;2023-11-21T09:37:45;98941.44;;;16.68;100.00
3434;BME280;1730;41.932;25.548;2023-11-21T09:40:12;98924.72;;;16.71;100.00
3434;BME280;1730;41.932;25.548;2023-11-21T09:42:56;98908.59;;;16.76;100.00
3434;BME280;1730;41.932;25.548;2023-11-21T09:45:27;98899.69;;;17.08;100.00
3434;BME280;1730;41.932;25.548;2023-11-21T09:47:57;98891.75;;;17.13;100.00
3434;BME280;1730;41.932;25.548;2023-11-21T09:50:23;98891.13;;;17.18;100.00
3434;BME280;1730;41.932;25.548;2023-11-21T09:53:18;98894.69;;;17.38;100.00
3434;BME280;1730;41.932;25.548;2023-11-21T09:55:53;98875.00;;;17.49;100.00
3434;BME280;1730;41.932;25.548;2023-11-21T09:58:20;98869.38;;;17.71;100.00
3434;BME280;1730;41.932;25.548;2023-11-21T10:00:50;98860.53;;;17.69;100.00
3434;BME280;1730;41.932;25.548;2023-11-21T10:03:18;98865.13;;;17.35;100.00
3434;BME280;1730;41.932;25.548;2023-11-21T10:05:45;98823.41;;;17.22;100.00
3434;BME280;1730;41.932;25.548;2023-11-21T10:08:13;98866.00;;;17.49;100.00
3434;BME280;1730;41.932;25.548;2023-11-21T10:10:45;98856.34;;;17.79;100.00
3434;BME280;1730;41.932;25.548;2023-11-21T10:13:14;98848.56;;;17.83;100.00
3434;BME280;1730;41.932;25.548;2023-11-21T10:15:42;98850.66;;;17.87;100.00
3434;BME280;1730;41.932;25.548;2023-11-21T10:18:15;98851.50;;;17.88;100.00
3434;BME280;1730;41.932;25.548;2023-11-21T10:20:41;98849.84;;;17.80;100.00
3434;BME280;1730;41.932;25.548;2023-11-21T10:23:08;98848.13;;;18.12;100.00
3434;BME280;1730;41.932;25.548;2023-11-21T10:25:37;98840.53;;;18.21;100.00
3434;BME280;1730;41.932;25.548;2023-11-21T10:28:03;98837.78;;;18.21;100.00
3434;BME280;1730;41.932;25.548;2023-11-21T10:30:36;98561.53;;;16.72;100.00
3434;BME280;1730;41.932;25.548;2023-11-21T10:33:06;98824.94;;;18.28;100.00
3434;BME280;1730;41.932;25.548;2023-11-21T10:35:49;98832.31;;;18.27;100.00
3434;BME280;1730;41.932;25.548;2023-11-21T10:38:20;98825.31;;;18.89;100.00
3434;BME280;1730;41.932;25.548;2023-11-21T10:40:51;98807.72;;;19.10;100.00
3434;BME280;1730;41.932;25.548;2023-11-21T10:43:17;98640.47;;;18.14;100.00
3434;BME280;1730;41.932;25.548;2023-11-21T10:45:45;98618.91;;;18.06;100.00
3434;BME280;1730;41.932;25.548;2023-11-21T10:48:13;98686.34;;;18.68;100.00
3434;BME280;1730;41.932;25.548;2023-11-21T10:50:46;98777.38;;;19.43;100.00
3434;BME280;1730;41.932;25.548;2023-11-21T10:53:12;98766.44;;;19.43;100.00
3434;BME280;1730;41.932;25.548;2023-11-21T10:55:38;98761.25;;;19.59;100.00
3434;BME280;1730;41.932;25.548;2023-11-21T10:58:05;98759.91;;;19.68;100.00
3434;BME280;1730;41.932;25.548;2023-11-21T11:00:32;98506.94;;;17.94;100.00
3434;BME280;1730;41.932;25.548;2023-11-21T11:02:58;98764.06;;;19.71;100.00
3434;BME280;1730;41.932;25.548;2023-11-21T11:05:51;98753.22;;;19.64;100.00
3434;BME280;1730;41.932;25.548;2023-11-21T11:08:21;98746.13;;;19.93;100.00
3434;BME280;1730;41.932;25.548;2023-11-21T11:10:52;98757.91;;;19.75;100.00
3434;BME280;1730;41.932;25.548;2023-11-21T11:13:31;98741.72;;;19.92;100.00
3434;BME280;1730;41.932;25.548;2023-11-21T11:16:01;98780.97;;;19.86;100.00
3434;BME280;1730;41.932;25.548;2023-11-21T12:01:46;98689.63;;;17.63;100.00
3434;BME280;1730;41.932;25.548;2023-11-21T12:06:47;98699.13;;;17.98;100.00
3434;BME280;1730;41.932;25.548;2023-11-21T12:09:21;98681.38;;;17.76;100.00
3434;BME280;1730;41.932;25.548;2023-11-21T12:11:51;98682.44;;;17.81;100.00
3434;BME280;1730;41.932;25.548;2023-11-21T12:14:21;98565.66;;;17.01;100.00
3434;BME280;1730;41.932;25.548;2023-11-21T12:16:49;98675.00;;;17.31;100.00
3434;BME280;1730;41.932;25.548;2023-11-21T12:19:17;98672.88;;;17.59;100.00
3434;BME280;1730;41.932;25.548;2023-11-21T12:21:43;98651.13;;;17.13;100.00
3434;BME280;1730;41.932;25.548;2023-11-21T12:24:10;98523.47;;;16.26;100.00
3434;BME280;1730;41.932;25.548;2023-11-21T12:26:42;98423.69;;;15.94;100.00
3434;BME280;1730;41.932;25.548;2023-11-21T12:29:08;98214.69;;;14.54;100.00
3434;BME280;1730;41.932;25.548;2023-11-21T12:31:34;98640.56;;;17.43;100.00
3434;BME280;1730;41.932;25.548;2023-11-21T12:34:00;98632.78;;;17.46;100.00
3434;BME280;1730;41.932;25.548;2023-11-21T12:36:26;98632.13;;;17.64;100.00
3434;BME280;1730;41.932;25.548;2023-11-21T12:38:54;98652.06;;;17.65;100.00
3434;BME280;1730;41.932;25.548;2023-11-21T12:41:20;98675.34;;;17.67;100.00
3434;BME280;1730;41.932;25.548;2023-11-21T12:43:49;98674.00;;;17.89;100.00
3434;BME280;1730;41.932;25.548;2023-11-21T12:46:15;98685.16;;;17.75;100.00
3434;BME280;1730;41.932;25.548;2023-11-21T12:48:46;98696.13;;;17.62;100.00
3434;BME280;1730;41.932;25.548;2023-11-21T12:51:15;98714.56;;;17.60;100.00
3434;BME280;1730;41.932;25.548;2023-11-21T12:53:42;98718.13;;;17.67;100.00
3434;BME280;1730;41.932;25.548;2023-11-21T12:56:11;98728.00;;;17.68;100.00
3434;BME280;1730;41.932;25.548;2023-11-21T12:58:38;98751.94;;;17.59;100.00
3434;BME280;1730;41.932;25.548;2023-11-21T13:01:08;98748.56;;;17.64;100.00
3434;BME280;1730;41.932;25.548;2023-11-21T13:03:47;98622.06;;;16.87;100.00
3434;BME280;1730;41.932;25.548;2023-11-21T13:06:17;98776.22;;;17.61;100.00
3434;BME280;1730;41.932;25.548;2023-11-21T13:08:44;98674.22;;;16.91;100.00
3434;BME280;1730;41.932;25.548;2023-11-21T13:11:10;98777.72;;;17.37;100.00
3434;BME280;1730;41.932;25.548;2023-11-21T13:13:45;98762.81;;;17.39;100.00
3434;BME280;1730;41.932;25.548;2023-11-21T13:16:11;98763.66;;;17.40;100.00
3434;BME280;1730;41.932;25.548;2023-11-21T13:18:43;98759.28;;;17.32;100.00
3434;BME280;1730;41.932;25.548;2023-11-21T13:21:09;98765.97;;;17.30;100.00
3434;BME280;1730;41.932;25.548;2023-11-21T13:23:41;98782.97;;;17.19;100.00
3434;BME280;1730;41.932;25.548;2023-11-21T13:26:40;98821.94;;;17.12;100.00
3434;BME280;1730;41.932;25.548;2023-11-21T13:29:12;98846.47;;;17.26;100.00
3434;BME280;1730;41.932;25.548;2023-11-21T13:31:38;98772.31;;;16.30;100.00
3434;BME280;1730;41.932;25.548;2023-11-21T13:34:04;98816.44;;;16.19;100.00
3434;BME280;1730;41.932;25.548;2023-11-21T13:36:30;98580.84;;;14.20;100.00
3434;BME280;1730;41.932;25.548;2023-11-21T13:38:58;99045.38;;;16.72;100.00
3434;BME280;1730;41.932;25.548;2023-11-21T13:41:25;99083.19;;;16.60;100.00
3434;BME280;1730;41.932;25.548;2023-11-21T13:43:56;99111.34;;;16.74;100.00
3434;BME280;1730;41.932;25.548;2023-11-21T13:46:31;99131.03;;;16.48;100.00
3434;BME280;1730;41.932;25.548;2023-11-21T13:49:05;99088.22;;;15.71;100.00
3434;BME280;1730;41.932;25.548;2023-11-21T13:51:38;98630.72;;;12.74;100.00
3434;BME280;1730;41.932;25.548;2023-11-21T13:54:10;98835.13;;;13.59;100.00
3434;BME280;1730;41.932;25.548;2023-11-21T13:56:36;99293.91;;;16.30;100.00
3434;BME280;1730;41.932;25.548;2023-11-21T13:59:03;99342.62;;;16.24;100.00